Time;durP1;ratioP1;P1;durP2;ratioP2;P2;SDS_P1;SDS_P2;PMS_P1;PMS_P2;Temp;Humidity;BMP_temperature;BMP_pressure;BME280_temperature;BME280_humidity;BME280_pressure;Samples;Min_cycle;Max_cycle;Signal;HPM_P1;HPM_P2
2023/06/21 00:00:47;;;;;;;10.80;9.70;;;19.90;99.90;;;;;;5058998;28;20052;-81
2023/06/21 00:03:13;;;;;;;11.30;10.20;;;19.90;99.90;;;;;;5052706;28;20045;-81
2023/06/21 00:05:39;;;;;;;11.38;10.27;;;19.80;99.90;;;;;;5038680;28;20109;-79
2023/06/21 00:08:05;;;;;;;11.18;10.18;;;19.80;99.90;;;;;;5051877;28;20095;-80
2023/06/21 00:10:31;;;;;;;11.50;10.52;;;19.80;99.90;;;;;;5054983;28;20041;-80
2023/06/21 00:12:57;;;;;;;11.23;10.20;;;19.70;99.90;;;;;;5052203;28;20037;-79
2023/06/21 00:15:24;;;;;;;10.90;9.93;;;19.70;99.90;;;;;;5051765;28;20045;-80
2023/06/21 00:17:50;;;;;;;11.82;10.75;;;19.60;99.90;;;;;;5051236;28;20267;-79
2023/06/21 00:20:17;;;;;;;12.35;11.20;;;19.70;99.90;;;;;;5051216;28;20070;-79
2023/06/21 00:22:46;;;;;;;12.10;11.10;;;19.60;99.90;;;;;;5060344;28;20041;-79
2023/06/21 00:25:13;;;;;;;11.98;10.88;;;19.60;99.90;;;;;;5067871;28;20080;-79
2023/06/21 00:27:39;;;;;;;13.45;12.15;;;19.60;99.90;;;;;;5055939;28;20047;-80
2023/06/21 00:30:05;;;;;;;13.63;12.43;;;19.60;99.90;;;;;;5052808;28;20128;-80
2023/06/21 00:32:31;;;;;;;12.75;11.13;;;19.60;99.90;;;;;;5053866;28;20079;-80
2023/06/21 00:34:57;;;;;;;13.52;12.43;;;19.50;99.90;;;;;;5053861;28;20045;-80
2023/06/21 00:37:22;;;;;;;12.93;11.75;;;19.50;99.90;;;;;;5055770;28;20033;-80
2023/06/21 00:39:48;;;;;;;14.38;13.00;;;19.40;99.90;;;;;;5055781;28;20044;-80
2023/06/21 00:42:13;;;;;;;14.38;13.00;;;19.50;99.90;;;;;;5060562;28;20033;-80
2023/06/21 00:44:39;;;;;;;14.75;13.45;;;19.50;99.90;;;;;;5048025;28;20124;-80
2023/06/21 00:47:05;;;;;;;15.50;13.93;;;19.40;99.90;;;;;;5048862;28;20037;-80
2023/06/21 00:49:31;;;;;;;14.88;13.48;;;19.30;99.90;;;;;;5063514;28;20036;-80
2023/06/21 00:51:57;;;;;;;15.23;13.93;;;19.30;99.90;;;;;;5081154;28;20036;-80
2023/06/21 00:54:27;;;;;;;14.60;13.23;;;19.30;99.90;;;;;;5069073;28;20053;-80
2023/06/21 00:56:59;;;;;;;17.77;14.43;;;19.30;99.90;;;;;;5079902;28;20082;-81
2023/06/21 00:59:28;;;;;;;15.90;14.40;;;19.20;99.90;;;;;;5080255;28;20128;-80
2023/06/21 01:01:58;;;;;;;16.73;15.23;;;19.20;99.90;;;;;;5071973;28;20041;-81
2023/06/21 01:04:25;;;;;;;16.48;14.95;;;19.20;99.90;;;;;;5058094;28;20124;-80
2023/06/21 01:07:21;;;;;;;16.50;14.90;;;19.10;99.90;;;;;;5060520;28;20061;-81
2023/06/21 01:10:13;;;;;;;16.42;14.80;;;19.10;99.90;;;;;;5060323;28;20049;-80
2023/06/21 01:13:09;;;;;;;17.30;15.77;;;19.10;99.90;;;;;;5061414;28;20526;-81
2023/06/21 01:15:42;;;;;;;16.48;14.98;;;19.00;99.90;;;;;;5063940;28;20080;-80
2023/06/21 01:18:11;;;;;;;18.15;16.40;;;19.10;99.90;;;;;;5064019;28;20509;-80
2023/06/21 01:20:38;;;;;;;17.02;15.30;;;19.10;99.90;;;;;;5044469;28;20049;-79
2023/06/21 01:23:52;;;;;;;17.42;15.75;;;19.00;99.90;;;;;;5038068;28;20080;-80
2023/06/21 01:26:48;;;;;;;18.08;16.45;;;18.90;99.90;;;;;;5010825;28;20504;-80
2023/06/21 01:29:21;;;;;;;18.08;16.20;;;19.00;99.90;;;;;;5013588;28;20755;-79
2023/06/21 01:31:51;;;;;;;18.67;16.85;;;18.90;99.90;;;;;;5002192;28;20050;-79
2023/06/21 01:34:18;;;;;;;18.63;16.92;;;18.90;99.90;;;;;;5039173;28;20042;-79
2023/06/21 01:36:44;;;;;;;17.75;16.15;;;18.90;99.90;;;;;;5027263;28;20046;-79
2023/06/21 01:39:10;;;;;;;20.38;18.38;;;18.90;99.90;;;;;;5018724;28;20124;-80
2023/06/21 01:41:36;;;;;;;18.73;16.95;;;18.90;99.90;;;;;;5016900;28;20100;-79
2023/06/21 01:44:04;;;;;;;18.10;16.60;;;19.00;99.90;;;;;;5015267;28;20230;-80
2023/06/21 01:46:29;;;;;;;18.20;16.58;;;18.80;99.90;;;;;;5014590;28;20501;-79
2023/06/21 01:48:58;;;;;;;20.95;18.95;;;18.90;99.90;;;;;;5021031;28;20053;-80
2023/06/21 01:51:24;;;;;;;20.80;18.83;;;18.80;99.90;;;;;;4997991;28;20050;-80
2023/06/21 01:53:51;;;;;;;21.50;19.50;;;18.80;99.90;;;;;;5017900;28;20060;-80
2023/06/21 01:56:18;;;;;;;23.63;21.53;;;18.90;99.90;;;;;;5015391;28;20064;-80
2023/06/21 01:58:46;;;;;;;23.65;21.30;;;18.90;99.90;;;;;;5012472;28;20038;-81
2023/06/21 02:01:12;;;;;;;24.10;21.90;;;19.00;99.90;;;;;;5012336;28;20084;-81
2023/06/21 02:03:44;;;;;;;22.92;20.88;;;19.00;99.90;;;;;;5056062;28;20044;-80
2023/06/21 02:06:11;;;;;;;24.98;22.58;;;19.00;99.90;;;;;;5050845;28;20059;-80
2023/06/21 02:08:38;;;;;;;24.17;22.08;;;18.90;99.90;;;;;;5058149;28;20450;-80
2023/06/21 02:11:04;;;;;;;23.77;21.50;;;19.00;99.90;;;;;;5050592;28;20049;-80
2023/06/21 02:13:30;;;;;;;23.77;21.50;;;18.90;99.90;;;;;;5036648;28;20072;-80
2023/06/21 02:15:56;;;;;;;26.08;23.58;;;19.00;99.90;;;;;;5052689;28;20064;-81
2023/06/21 02:18:22;;;;;;;25.05;22.75;;;19.00;99.90;;;;;;5052785;28;20091;-81
2023/06/21 02:20:49;;;;;;;25.88;23.38;;;19.10;99.90;;;;;;5038190;28;20059;-80
2023/06/21 02:23:14;;;;;;;27.60;24.85;;;19.00;99.90;;;;;;5052274;28;20124;-79
2023/06/21 02:25:40;;;;;;;28.10;25.50;;;19.10;99.90;;;;;;5051247;28;20473;-80
2023/06/21 02:28:05;;;;;;;27.00;24.40;;;19.00;99.90;;;;;;5052672;28;20068;-81
2023/06/21 02:30:31;;;;;;;30.75;27.85;;;19.20;99.90;;;;;;5038071;28;20100;-81
2023/06/21 02:32:57;;;;;;;28.30;25.73;;;19.00;99.90;;;;;;5062612;28;20093;-81
2023/06/21 02:35:23;;;;;;;28.73;25.95;;;19.00;99.90;;;;;;5061021;28;20100;-82
2023/06/21 02:37:49;;;;;;;28.20;25.60;;;19.10;99.90;;;;;;5044307;28;20045;-81
2023/06/21 02:40:14;;;;;;;27.63;25.02;;;19.00;99.90;;;;;;5043052;28;20056;-82
2023/06/21 02:42:40;;;;;;;27.15;24.70;;;18.90;99.90;;;;;;5026951;28;20048;-82
2023/06/21 02:45:09;;;;;;;27.02;24.42;;;18.80;99.90;;;;;;5041523;28;20081;-81
2023/06/21 02:47:36;;;;;;;26.60;24.13;;;18.80;99.90;;;;;;5061357;28;20045;-81
2023/06/21 02:50:03;;;;;;;25.27;22.90;;;18.80;99.90;;;;;;5061084;28;20051;-81
2023/06/21 02:52:29;;;;;;;27.83;25.23;;;18.70;99.90;;;;;;5060567;28;20041;-82
2023/06/21 02:54:54;;;;;;;25.63;23.27;;;18.70;99.90;;;;;;5042022;28;20428;-82
2023/06/21 02:57:20;;;;;;;27.85;25.30;;;18.60;99.90;;;;;;5064578;28;20047;-81
2023/06/21 02:59:48;;;;;;;27.95;25.17;;;18.50;99.90;;;;;;5069779;28;20474;-82
2023/06/21 03:02:13;;;;;;;;;;;18.60;99.90;;;;;;5047309;28;20060;-80
2023/06/21 03:04:39;;;;;;;26.45;24.08;;;18.40;99.90;;;;;;5060505;28;19920;-80
2023/06/21 03:07:07;;;;;;;27.95;25.23;;;18.50;99.90;;;;;;5060003;28;20111;-80
2023/06/21 03:09:33;;;;;;;27.27;24.50;;;18.50;99.90;;;;;;5059311;28;20081;-80
2023/06/21 03:12:08;;;;;;;28.30;25.52;;;18.50;99.90;;;;;;5069134;28;20044;-82
2023/06/21 03:14:38;;;;;;;30.25;27.38;;;18.50;99.90;;;;;;5077640;28;20058;-82
2023/06/21 03:17:04;;;;;;;28.38;25.77;;;18.40;99.90;;;;;;5058547;28;20041;-82
2023/06/21 03:19:30;;;;;;;28.38;25.65;;;18.40;99.90;;;;;;5057251;28;20086;-82
2023/06/21 03:21:56;;;;;;;29.27;26.48;;;18.40;99.90;;;;;;5057074;28;20402;-81
2023/06/21 03:24:21;;;;;;;29.77;26.90;;;18.40;99.90;;;;;;5047239;28;20029;-81
2023/06/21 03:26:47;;;;;;;31.27;27.23;;;18.30;99.90;;;;;;5018389;28;20550;-81
2023/06/21 03:29:13;;;;;;;28.65;25.98;;;18.50;99.90;;;;;;5036152;28;20045;-81
2023/06/21 03:31:38;;;;;;;29.70;26.90;;;18.40;99.90;;;;;;5050656;28;20041;-81
2023/06/21 03:34:04;;;;;;;29.70;27.00;;;18.40;99.90;;;;;;5051205;28;20045;-81
2023/06/21 03:36:29;;;;;;;28.92;26.23;;;18.40;99.90;;;;;;5050975;28;20029;-81
2023/06/21 03:38:55;;;;;;;30.58;27.65;;;18.40;99.90;;;;;;5054373;28;20045;-82
2023/06/21 03:41:21;;;;;;;30.70;27.73;;;18.40;99.90;;;;;;5057783;28;20044;-82
2023/06/21 03:43:46;;;;;;;32.55;29.23;;;18.50;99.90;;;;;;5021006;28;20056;-82
2023/06/21 03:46:12;;;;;;;33.10;30.00;;;18.50;99.90;;;;;;5052936;28;20041;-81
2023/06/21 03:48:37;;;;;;;31.45;28.45;;;18.40;99.90;;;;;;5057067;28;20056;-82
2023/06/21 03:51:03;;;;;;;31.70;28.70;;;18.60;99.90;;;;;;5053974;28;20045;-82
2023/06/21 03:53:29;;;;;;;31.17;28.15;;;18.60;99.90;;;;;;5058378;28;20044;-82
2023/06/21 03:55:54;;;;;;;33.85;30.65;;;18.60;99.90;;;;;;5058218;28;20112;-82
2023/06/21 03:58:20;;;;;;;33.55;30.17;;;18.50;99.90;;;;;;5053716;28;20045;-82
2023/06/21 04:00:46;;;;;;;33.45;30.27;;;18.60;99.90;;;;;;5038064;28;20041;-82
2023/06/21 04:03:11;;;;;;;31.98;28.98;;;18.70;99.90;;;;;;5059112;28;20048;-81
2023/06/21 04:05:37;;;;;;;33.25;30.13;;;18.70;99.90;;;;;;5040880;28;21399;-82
2023/06/21 04:08:03;;;;;;;33.35;30.20;;;18.70;99.90;;;;;;5037855;28;20135;-82
2023/06/21 04:10:29;;;;;;;34.15;30.85;;;18.90;99.90;;;;;;5055337;28;20048;-81
2023/06/21 04:12:54;;;;;;;33.47;30.27;;;18.90;99.90;;;;;;5042180;28;20122;-82
2023/06/21 04:15:21;;;;;;;34.03;30.83;;;19.00;99.90;;;;;;5065384;28;20517;-81
2023/06/21 04:17:46;;;;;;;33.97;30.67;;;19.00;99.90;;;;;;5059632;28;20889;-81
2023/06/21 04:20:14;;;;;;;34.45;31.13;;;19.20;99.90;;;;;;5059780;28;20040;-80
2023/06/21 04:22:41;;;;;;;33.15;30.00;;;19.20;99.90;;;;;;5058853;28;20044;-81
2023/06/21 04:25:08;;;;;;;34.33;31.10;;;19.30;99.90;;;;;;5055665;28;20041;-81
2023/06/21 04:27:33;;;;;;;32.80;29.70;;;19.40;99.90;;;;;;5058011;28;20033;-80
2023/06/21 04:29:59;;;;;;;33.67;30.58;;;19.50;99.90;;;;;;5049469;28;20063;-80
2023/06/21 04:32:25;;;;;;;32.75;29.75;;;19.50;99.90;;;;;;5056004;28;20041;-81
2023/06/21 04:34:51;;;;;;;34.95;31.45;;;19.60;99.90;;;;;;5059568;28;20044;-80
2023/06/21 04:37:18;;;;;;;32.22;29.33;;;19.60;99.90;;;;;;5053616;28;20033;-81
2023/06/21 04:39:44;;;;;;;33.60;30.33;;;;;;;;;;5057234;28;20049;-80
2023/06/21 04:42:10;;;;;;;33.58;30.42;;;19.70;99.90;;;;;;5037781;28;20041;-80
2023/06/21 04:44:35;;;;;;;34.35;31.02;;;19.60;99.90;;;;;;5040592;28;20028;-81
2023/06/21 04:47:01;;;;;;;34.13;30.88;;;19.60;99.90;;;;;;5044016;28;20108;-81
2023/06/21 04:49:29;;;;;;;33.83;30.48;;;19.70;99.90;;;;;;5041217;28;20036;-81
2023/06/21 04:51:58;;;;;;;35.78;32.28;;;19.80;99.90;;;;;;5058416;28;20120;-82
2023/06/21 04:54:28;;;;;;;33.42;30.27;;;20.00;99.90;;;;;;5055800;28;20511;-81
2023/06/21 04:56:54;;;;;;;34.17;30.98;;;20.20;99.90;;;;;;5042300;28;20040;-81
2023/06/21 04:59:19;;;;;;;33.95;30.85;;;20.40;99.90;;;;;;5059394;28;20497;-81
2023/06/21 05:01:45;;;;;;;33.92;30.65;;;20.40;99.90;;;;;;5031520;28;20144;-81
2023/06/21 05:04:11;;;;;;;34.50;31.00;;;20.50;99.90;;;;;;5046044;28;20045;-80
2023/06/21 05:06:37;;;;;;;32.83;29.83;;;20.50;99.90;;;;;;5063387;28;20451;-80
2023/06/21 05:09:04;;;;;;;34.13;30.95;;;20.60;99.90;;;;;;5070903;28;20127;-81
2023/06/21 05:11:29;;;;;;;31.70;28.80;;;20.80;99.90;;;;;;5057659;28;20510;-81
2023/06/21 05:13:55;;;;;;;32.15;29.02;;;20.70;99.90;;;;;;5051345;28;20057;-81
2023/06/21 05:16:21;;;;;;;34.03;30.67;;;20.70;99.90;;;;;;5054405;28;20044;-81
2023/06/21 05:18:46;;;;;;;32.95;29.73;;;20.80;99.90;;;;;;5034444;28;20049;-82
2023/06/21 05:21:12;;;;;;;32.35;29.25;;;20.70;99.90;;;;;;5051499;28;20050;-82
2023/06/21 05:23:38;;;;;;;34.47;30.92;;;20.70;99.90;;;;;;5051473;28;20037;-82
2023/06/21 05:26:03;;;;;;;33.00;29.88;;;20.60;99.90;;;;;;5055777;28;20407;-82
2023/06/21 05:28:29;;;;;;;33.92;30.55;;;20.60;99.90;;;;;;5022684;28;20056;-81
2023/06/21 05:30:54;;;;;;;34.03;30.80;;;20.50;99.90;;;;;;5035062;28;20045;-81
2023/06/21 05:33:20;;;;;;;33.92;30.83;;;20.50;99.90;;;;;;5048137;28;20096;-82
2023/06/21 05:35:46;;;;;;;35.67;31.83;;;20.50;99.90;;;;;;5055024;28;20110;-82
2023/06/21 05:38:11;;;;;;;35.20;31.70;;;20.60;99.90;;;;;;5036225;28;20041;-81
2023/06/21 05:40:37;;;;;;;34.00;30.85;;;21.00;99.90;;;;;;5052133;28;20033;-82
2023/06/21 05:43:03;;;;;;;34.10;30.90;;;21.00;99.90;;;;;;5055516;28;20042;-81
2023/06/21 05:45:29;;;;;;;32.75;29.65;;;21.00;99.90;;;;;;5057653;28;20033;-81
2023/06/21 05:47:56;;;;;;;33.85;30.55;;;21.10;99.90;;;;;;5037346;28;20487;-81
2023/06/21 05:50:22;;;;;;;33.13;29.83;;;21.10;99.90;;;;;;5054252;28;20500;-81
2023/06/21 05:52:48;;;;;;;35.67;31.55;;;21.10;99.90;;;;;;5037457;28;20071;-81
2023/06/21 05:55:13;;;;;;;35.10;31.50;;;21.20;99.90;;;;;;5052904;28;20051;-82
2023/06/21 05:57:39;;;;;;;33.90;30.55;;;21.10;99.90;;;;;;5050229;28;20040;-81
2023/06/21 06:00:09;;;;;;;34.00;30.58;;;21.20;99.90;;;;;;5049311;28;20045;-81
2023/06/21 06:02:34;;;;;;;34.33;30.98;;;21.10;99.90;;;;;;5057301;28;20049;-82
2023/06/21 06:05:00;;;;;;;34.17;30.67;;;21.10;99.90;;;;;;5045149;28;20043;-82
2023/06/21 06:07:26;;;;;;;33.65;30.38;;;21.00;99.90;;;;;;5033129;28;20072;-82
2023/06/21 06:09:51;;;;;;;34.20;31.02;;;21.10;99.90;;;;;;5035128;28;20114;-82
2023/06/21 06:12:18;;;;;;;33.85;30.30;;;21.20;99.90;;;;;;5034109;28;20046;-82
2023/06/21 06:14:44;;;;;;;35.08;31.70;;;21.20;99.90;;;;;;5031750;28;20135;-82
2023/06/21 06:17:10;;;;;;;32.33;29.23;;;21.50;99.90;;;;;;5031253;28;20048;-82
2023/06/21 06:19:36;;;;;;;33.38;30.17;;;;;;;;;;5031187;28;20037;-83
2023/06/21 06:22:01;;;;;;;31.25;28.33;;;22.70;99.90;;;;;;5030330;28;20095;-83
2023/06/21 06:24:27;;;;;;;30.90;27.98;;;23.50;99.90;;;;;;5031566;28;20125;-83
2023/06/21 06:26:54;;;;;;;30.77;27.98;;;;;;;;;;5030052;28;20076;-83
2023/06/21 06:29:20;;;;;;;30.10;27.40;;;24.00;99.90;;;;;;5027064;28;20092;-83
2023/06/21 06:31:45;;;;;;;30.17;27.42;;;23.90;99.90;;;;;;5041661;28;20040;-83
2023/06/21 06:34:11;;;;;;;30.00;27.35;;;24.30;99.90;;;;;;5058568;28;20506;-83
2023/06/21 06:36:36;;;;;;;29.75;27.05;;;24.30;99.90;;;;;;5045369;28;20045;-82
2023/06/21 06:39:02;;;;;;;28.80;26.10;;;25.90;99.90;;;;;;5041851;28;20038;-81
2023/06/21 06:41:28;;;;;;;28.08;25.38;;;25.70;99.90;;;;;;5025838;28;20136;-82
2023/06/21 06:43:54;;;;;;;27.10;24.67;;;25.70;99.90;;;;;;5042179;28;20045;-83
2023/06/21 06:46:19;;;;;;;27.83;24.98;;;25.80;99.90;;;;;;5037998;28;20048;-84
2023/06/21 06:48:45;;;;;;;25.65;23.35;;;26.40;99.90;;;;;;5037280;28;20041;-83
2023/06/21 06:51:10;;;;;;;27.33;24.98;;;26.90;99.90;;;;;;5037971;28;20041;-82
2023/06/21 06:53:36;;;;;;;27.02;24.30;;;27.60;99.90;;;;;;5038433;28;20428;-81
2023/06/21 06:56:02;;;;;;;26.48;24.13;;;27.90;99.90;;;;;;5035253;28;20389;-82
2023/06/21 06:58:28;;;;;;;25.20;22.75;;;27.80;99.90;;;;;;5038275;28;20044;-85
2023/06/21 07:00:54;;;;;;;25.25;23.13;;;28.10;99.90;;;;;;5018638;28;20056;-85
2023/06/21 07:03:20;;;;;;;25.55;23.25;;;28.30;99.90;;;;;;5031070;28;20034;-86
2023/06/21 07:05:47;;;;;;;26.35;23.98;;;28.60;99.90;;;;;;5046505;28;20038;-85
2023/06/21 07:08:12;;;;;;;25.80;23.40;;;28.90;99.90;;;;;;5044298;28;20056;-86
2023/06/21 07:10:38;;;;;;;25.35;22.98;;;29.40;99.90;;;;;;5045444;28;20412;-86
2023/06/21 07:13:05;;;;;;;23.88;21.88;;;29.70;99.90;;;;;;5035117;28;20040;-85
2023/06/21 07:15:30;;;;;;;23.48;21.48;;;29.90;99.90;;;;;;5051284;28;20033;-85
2023/06/21 07:17:56;;;;;;;22.40;20.45;;;29.70;99.90;;;;;;5048337;28;20092;-86
2023/06/21 07:20:22;;;;;;;24.52;22.33;;;29.80;99.90;;;;;;5051364;28;20045;-85
2023/06/21 07:22:48;;;;;;;22.63;20.65;;;29.90;99.90;;;;;;5050353;28;20045;-82
2023/06/21 07:25:14;;;;;;;22.73;20.63;;;30.00;99.90;;;;;;5048494;28;20037;-82
2023/06/21 07:27:40;;;;;;;23.20;21.20;;;29.80;99.90;;;;;;5050782;28;20364;-83
2023/06/21 07:30:06;;;;;;;23.98;21.77;;;29.50;99.90;;;;;;5051636;28;20044;-82
2023/06/21 07:32:33;;;;;;;23.23;21.00;;;29.20;99.90;;;;;;5047387;28;20030;-84
2023/06/21 07:34:59;;;;;;;22.27;20.27;;;29.30;99.90;;;;;;5031380;28;20117;-84
2023/06/21 07:37:26;;;;;;;23.50;21.50;;;29.30;99.90;;;;;;5032422;28;20112;-81
2023/06/21 07:39:52;;;;;;;;;;;29.30;99.90;;;;;;5058491;28;20029;-83
2023/06/21 07:42:17;;;;;;;21.53;19.67;;;29.50;99.90;;;;;;5054281;28;19927;-83
2023/06/21 07:44:43;;;;;;;21.75;19.83;;;29.40;99.90;;;;;;5055691;28;20037;-83
2023/06/21 07:47:09;;;;;;;20.27;18.52;;;29.00;99.90;;;;;;5055846;28;20084;-83
2023/06/21 07:49:34;;;;;;;21.15;18.98;;;29.00;99.90;;;;;;5037320;28;20025;-82
2023/06/21 07:52:00;;;;;;;20.92;19.10;;;28.60;99.90;;;;;;5024525;28;20076;-82
2023/06/21 07:54:25;;;;;;;21.63;19.80;;;28.10;99.90;;;;;;5040582;28;20045;-82
2023/06/21 07:56:51;;;;;;;20.17;18.33;;;27.90;99.90;;;;;;5041569;28;20094;-84
2023/06/21 07:59:17;;;;;;;20.05;18.23;;;27.80;99.90;;;;;;5053463;28;20455;-83
2023/06/21 08:01:42;;;;;;;18.50;16.90;;;27.60;99.90;;;;;;5049787;28;20044;-84
2023/06/21 08:04:08;;;;;;;19.75;17.95;;;27.40;99.90;;;;;;5049177;28;20037;-84
2023/06/21 08:06:33;;;;;;;21.45;19.55;;;27.00;99.90;;;;;;5056438;28;20049;-84
2023/06/21 08:08:59;;;;;;;19.67;17.90;;;26.70;99.90;;;;;;5056004;28;20075;-83
2023/06/21 08:11:26;;;;;;;21.13;19.17;;;26.70;99.90;;;;;;5059272;28;20072;-83
2023/06/21 08:13:51;;;;;;;21.52;19.52;;;27.00;99.90;;;;;;5064693;28;20064;-83
2023/06/21 08:16:17;;;;;;;21.23;19.13;;;26.90;99.90;;;;;;5062143;28;20041;-84
2023/06/21 08:18:43;;;;;;;19.70;17.75;;;27.00;99.90;;;;;;5065919;28;20033;-84
2023/06/21 08:21:09;;;;;;;17.55;15.85;;;26.60;99.90;;;;;;5046885;28;20057;-83
2023/06/21 08:23:34;;;;;;;15.48;13.90;;;26.90;99.90;;;;;;5044606;28;20152;-83
2023/06/21 08:26:00;;;;;;;17.23;15.57;;;27.00;99.90;;;;;;5061103;28;20075;-83
2023/06/21 08:28:26;;;;;;;19.80;17.90;;;26.90;99.90;;;;;;5061372;28;20029;-83
2023/06/21 08:30:51;;;;;;;19.05;17.10;;;26.50;99.90;;;;;;5065064;28;20127;-82
2023/06/21 08:33:17;;;;;;;17.00;15.43;;;26.50;99.90;;;;;;5062193;28;20036;-83
2023/06/21 08:35:43;;;;;;;16.23;14.73;;;26.60;99.90;;;;;;5067465;28;20040;-83
2023/06/21 08:38:08;;;;;;;16.77;15.18;;;27.00;99.90;;;;;;5062569;28;20091;-83
2023/06/21 08:40:37;;;;;;;16.55;15.10;;;26.90;99.90;;;;;;5066458;28;20033;-83
2023/06/21 08:43:03;;;;;;;16.70;15.20;;;26.50;99.90;;;;;;5064817;28;20041;-83
2023/06/21 08:45:29;;;;;;;18.50;16.67;;;26.40;99.90;;;;;;5062754;28;20044;-83
2023/06/21 08:48:01;;;;;;;19.58;17.77;;;26.40;99.90;;;;;;5056293;28;20064;-83
2023/06/21 08:50:28;;;;;;;17.67;16.10;;;26.40;99.90;;;;;;5060802;28;20099;-82
2023/06/21 08:52:55;;;;;;;16.85;15.35;;;26.70;99.90;;;;;;5058223;28;20033;-83
2023/06/21 08:55:25;;;;;;;16.08;13.50;;;26.90;99.90;;;;;;5057140;28;20071;-83
2023/06/21 08:57:57;;;;;;;16.45;15.02;;;27.30;99.90;;;;;;5058270;28;20379;-83
2023/06/21 09:00:32;;;;;;;17.70;16.13;;;27.80;99.90;;;;;;5056133;28;20481;-84
2023/06/21 09:03:17;;;;;;;18.10;16.48;;;27.90;99.90;;;;;;5060691;28;20060;-83
2023/06/21 09:05:49;;;;;;;16.90;15.32;;;27.30;99.90;;;;;;5059930;28;20452;-83
2023/06/21 09:08:15;;;;;;;13.52;12.20;;;27.40;99.90;;;;;;5043589;28;20080;-83
2023/06/21 09:10:42;;;;;;;13.70;12.52;;;27.30;99.90;;;;;;5062150;28;20567;-83
2023/06/21 09:13:08;;;;;;;;;;;27.10;99.90;;;;;;5065141;28;20037;-83
2023/06/21 09:15:34;;;;;;;16.53;14.00;;;27.10;99.90;;;;;;5063679;28;19928;-83
2023/06/21 09:18:01;;;;;;;15.88;14.25;;;27.50;99.90;;;;;;5064364;28;20098;-83
2023/06/21 09:20:28;;;;;;;16.67;15.10;;;27.90;99.90;;;;;;5066460;28;20037;-85
2023/06/21 09:22:58;;;;;;;15.35;13.95;;;27.90;99.90;;;;;;5061863;28;20551;-83
2023/06/21 09:25:26;;;;;;;14.90;13.60;;;27.80;99.90;;;;;;5062236;28;20131;-83
2023/06/21 09:27:55;;;;;;;14.35;13.05;;;27.90;99.90;;;;;;5060258;28;20063;-84
2023/06/21 09:30:23;;;;;;;15.70;14.15;;;27.90;99.90;;;;;;5059860;28;20033;-83
2023/06/21 09:32:51;;;;;;;14.65;13.35;;;27.70;99.90;;;;;;5062016;28;20037;-83
2023/06/21 09:35:18;;;;;;;14.68;13.48;;;27.60;99.90;;;;;;5043421;28;20049;-83
2023/06/21 09:37:43;;;;;;;13.90;12.70;;;28.00;99.90;;;;;;5061267;28;20045;-83
2023/06/21 09:40:09;;;;;;;14.18;12.88;;;28.10;99.90;;;;;;5065803;28;20303;-83
2023/06/21 09:42:39;;;;;;;15.98;14.57;;;27.90;99.90;;;;;;5065323;28;20120;-83
2023/06/21 09:45:31;;;;;;;12.75;11.55;;;27.30;99.90;;;;;;5045991;28;20056;-83
2023/06/21 09:47:57;;;;;;;12.02;10.32;;;27.20;99.90;;;;;;5058127;28;20059;-83
2023/06/21 09:50:23;;;;;;;11.95;10.82;;;27.10;99.90;;;;;;5059119;28;20037;-83
2023/06/21 09:52:48;;;;;;;11.52;10.25;;;27.00;99.90;;;;;;5059510;28;20087;-83
2023/06/21 09:55:15;;;;;;;9.90;8.95;;;27.00;99.90;;;;;;5055402;28;20037;-82
2023/06/21 09:57:40;;;;;;;10.68;9.10;;;27.20;99.90;;;;;;5063233;28;20045;-82
2023/06/21 10:00:07;;;;;;;12.57;11.45;;;27.40;99.90;;;;;;5053079;28;20046;-81
2023/06/21 10:02:40;;;;;;;12.65;11.40;;;27.50;99.90;;;;;;5051127;28;20459;-83
2023/06/21 10:05:19;;;;;;;12.23;11.02;;;27.60;99.90;;;;;;5040222;28;20111;-83
2023/06/21 10:07:45;;;;;;;13.77;12.38;;;27.40;99.90;;;;;;5022674;28;20133;-83
2023/06/21 10:10:12;;;;;;;13.50;11.95;;;27.10;99.90;;;;;;5058270;28;20053;-83
2023/06/21 10:12:48;;;;;;;13.27;11.85;;;27.10;99.90;;;;;;5063028;28;20048;-83
2023/06/21 10:15:14;;;;;;;12.48;11.32;;;27.00;99.90;;;;;;5057719;28;20033;-83
2023/06/21 10:17:40;;;;;;;12.63;11.32;;;27.30;99.90;;;;;;5038300;28;20124;-83
2023/06/21 10:20:07;;;;;;;10.77;9.33;;;27.30;99.90;;;;;;5056848;28;20068;-84
2023/06/21 10:22:34;;;;;;;10.52;9.43;;;27.80;99.90;;;;;;5064904;28;20033;-83
2023/06/21 10:25:01;;;;;;;;;;;28.00;99.90;;;;;;5045488;28;20052;-83
2023/06/21 10:27:27;;;;;;;12.27;9.98;;;28.20;99.90;;;;;;5025201;28;19970;-83
2023/06/21 10:29:57;;;;;;;11.90;10.80;;;28.20;99.90;;;;;;5059902;28;20037;-83
2023/06/21 10:32:27;;;;;;;11.10;10.18;;;27.70;99.90;;;;;;5060698;28;20422;-83
2023/06/21 10:35:13;;;;;;;11.02;10.10;;;28.10;99.90;;;;;;5041262;28;20033;-83
2023/06/21 10:37:50;;;;;;;8.50;7.80;;;28.20;99.90;;;;;;5058061;28;20322;-83
2023/06/21 10:40:17;;;;;;;9.30;8.50;;;28.50;99.90;;;;;;5058420;28;20049;-83
2023/06/21 10:42:44;;;;;;;6.88;6.28;;;28.70;99.90;;;;;;5061187;28;20097;-83
2023/06/21 10:45:11;;;;;;;8.77;7.90;;;29.00;99.90;;;;;;5056114;28;20068;-85
2023/06/21 10:47:41;;;;;;;8.52;7.82;;;29.10;99.90;;;;;;5054252;28;20033;-86
2023/06/21 10:50:08;;;;;;;8.35;7.63;;;29.30;99.90;;;;;;5051592;28;21382;-85
2023/06/21 10:52:34;;;;;;;8.82;7.97;;;29.20;99.90;;;;;;5053932;28;20048;-85
2023/06/21 10:55:01;;;;;;;8.37;7.63;;;28.80;99.90;;;;;;5037617;28;20084;-85
2023/06/21 10:57:29;;;;;;;8.38;7.57;;;28.70;99.90;;;;;;5051060;28;20059;-86
2023/06/21 10:59:57;;;;;;;8.27;7.57;;;28.70;99.90;;;;;;5052601;28;20041;-85
2023/06/21 11:02:23;;;;;;;10.00;8.10;;;28.70;99.90;;;;;;5052665;28;20045;-85
2023/06/21 11:05:15;;;;;;;8.27;7.47;;;28.70;99.90;;;;;;5037115;28;20068;-85
2023/06/21 11:07:59;;;;;;;8.05;7.35;;;28.40;99.90;;;;;;5051739;28;20060;-84
2023/06/21 11:10:42;;;;;;;8.65;7.75;;;28.10;99.90;;;;;;5047908;28;20033;-86
2023/06/21 11:13:08;;;;;;;8.43;7.75;;;28.50;99.90;;;;;;5052373;28;20033;-85
2023/06/21 11:15:37;;;;;;;8.18;7.47;;;28.70;99.90;;;;;;5054515;28;20045;-85
2023/06/21 11:18:07;;;;;;;7.85;7.20;;;28.50;99.90;;;;;;5054404;28;20056;-85
2023/06/21 11:20:48;;;;;;;6.68;6.07;;;28.70;99.90;;;;;;5057224;28;20033;-84
2023/06/21 11:23:18;;;;;;;5.57;5.10;;;28.90;99.90;;;;;;5055938;28;20492;-83
2023/06/21 11:25:58;;;;;;;4.97;4.40;;;28.70;99.90;;;;;;5039506;28;20096;-83
2023/06/21 11:28:29;;;;;;;6.47;5.85;;;29.20;99.90;;;;;;5053567;28;20041;-82
2023/06/21 11:31:03;;;;;;;4.95;4.55;;;29.00;99.90;;;;;;5056221;28;20073;-83
2023/06/21 11:33:30;;;;;;;7.05;5.65;;;29.20;99.90;;;;;;5053474;28;20036;-82
2023/06/21 11:36:03;;;;;;;7.68;6.60;;;29.10;99.90;;;;;;5055932;28;20848;-83
2023/06/21 11:38:30;;;;;;;7.90;7.20;;;28.80;99.90;;;;;;5052648;28;20060;-86
2023/06/21 11:40:59;;;;;;;5.95;5.35;;;28.60;99.90;;;;;;5054478;28;20045;-84
2023/06/21 11:43:24;;;;;;;6.65;5.57;;;29.10;99.90;;;;;;5054854;28;20068;-82
2023/06/21 11:46:00;;;;;;;5.78;5.28;;;28.80;99.90;;;;;;5056757;28;20041;-82
2023/06/21 11:48:38;;;;;;;5.65;5.15;;;28.70;99.90;;;;;;5058263;28;20099;-83
2023/06/21 11:51:10;;;;;;;7.47;6.78;;;28.60;99.90;;;;;;5065456;28;20043;-83
2023/06/21 11:53:41;;;;;;;6.93;6.32;;;28.50;99.90;;;;;;5044459;28;20472;-83
2023/06/21 11:56:08;;;;;;;5.93;5.38;;;28.60;99.90;;;;;;5065086;28;20092;-83
2023/06/21 11:58:35;;;;;;;5.60;5.18;;;28.20;99.90;;;;;;5062560;28;20075;-83
2023/06/21 12:01:01;;;;;;;6.10;5.57;;;28.00;99.90;;;;;;5066200;28;20052;-83
2023/06/21 12:03:27;;;;;;;7.35;6.57;;;27.80;99.90;;;;;;5032919;28;20117;-83
2023/06/21 12:05:58;;;;;;;8.23;7.53;;;27.50;99.90;;;;;;5057413;28;20069;-83
2023/06/21 12:08:26;;;;;;;6.45;5.90;;;27.30;99.90;;;;;;5044396;28;20046;-83
2023/06/21 12:10:52;;;;;;;7.47;5.70;;;27.40;99.90;;;;;;5042915;28;20059;-83
2023/06/21 12:13:19;;;;;;;4.90;4.50;;;27.40;99.90;;;;;;5024163;28;20167;-83
2023/06/21 12:15:52;;;;;;;;;;;27.60;99.90;;;;;;5026962;28;20038;-84
2023/06/21 12:18:18;;;;;;;6.15;5.65;;;27.50;99.90;;;;;;5042892;28;19988;-83
2023/06/21 12:20:44;;;;;;;5.50;5.03;;;27.40;99.90;;;;;;5041150;28;20065;-83
2023/06/21 12:23:10;;;;;;;10.57;4.93;;;27.70;99.90;;;;;;5045856;28;20125;-83
2023/06/21 12:25:56;;;;;;;6.95;5.40;;;28.10;99.90;;;;;;5045492;28;20033;-81
2023/06/21 12:28:23;;;;;;;6.55;6.00;;;28.30;99.90;;;;;;5044786;28;20045;-83
2023/06/21 12:31:01;;;;;;;6.38;5.78;;;28.30;99.90;;;;;;5042848;28;20087;-83
2023/06/21 12:33:28;;;;;;;5.57;3.70;;;28.40;99.90;;;;;;5037741;28;20046;-82
2023/06/21 12:36:09;;;;;;;5.07;4.57;;;28.90;99.90;;;;;;5037024;28;20037;-82